KGRB

Green Bay-Austin Straubel International Airport

Green Bay, Wisconsin, USA
METAR KGRB 191453Z 00000KT 10SM CLR 23/18 A3001 RMK AO2 SLP162 T02330178 51007
Observed Flight Rules
Aug-19 @ 14:53 UTC (45 minutes ago) Visual Flight Rules
Visibility Clouds
10 miles
  • Clear skies
Temperatures Readings
Current 23°C / 73°F
Dewpoint 18°C / 64°F
Humidity 74%
Altimeter 30.01" Hg
Pressure 1016.2 hPa
Elevation 208
METAR KGRB 191453Z 00000KT 10SM CLR 23/18 A3001 RMK AO2 SLP162 T02330178 51007
Observed Flight Rules
Aug-19 @ 14:53 UTC
(45 minutes ago)
VFR
Clouds
  • Clear skies
Temperature Dewpoint
23°C / 73°F 18°C / 64°F
Humidity Altimeter Pressure
74% 30.01" Hg 1016.2 hPa